sensor_id;sensor_type;location;lat;lon;timestamp;P1;durP1;ratioP1;P2;durP2;ratioP2
67508;SDS011;54354;44.724;11.284;2022-08-19T00:01:43;6.18;;;1.75;;
67508;SDS011;54354;44.724;11.284;2022-08-19T00:04:10;9.65;;;2.40;;
67508;SDS011;54354;44.724;11.284;2022-08-19T00:06:38;8.52;;;1.80;;
67508;SDS011;54354;44.724;11.284;2022-08-19T00:09:07;13.85;;;3.05;;
67508;SDS011;54354;44.724;11.284;2022-08-19T00:11:34;9.85;;;2.75;;
67508;SDS011;54354;44.724;11.284;2022-08-19T00:14:02;5.78;;;2.08;;
67508;SDS011;54354;44.724;11.284;2022-08-19T00:16:29;5.95;;;2.20;;
67508;SDS011;54354;44.724;11.284;2022-08-19T00:18:54;9.90;;;2.35;;
67508;SDS011;54354;44.724;11.284;2022-08-19T00:21:21;5.38;;;2.20;;
67508;SDS011;54354;44.724;11.284;2022-08-19T00:23:47;8.18;;;2.20;;
67508;SDS011;54354;44.724;11.284;2022-08-19T00:26:13;11.60;;;2.30;;
67508;SDS011;54354;44.724;11.284;2022-08-19T00:28:38;7.57;;;2.33;;
67508;SDS011;54354;44.724;11.284;2022-08-19T00:31:04;7.40;;;2.35;;
67508;SDS011;54354;44.724;11.284;2022-08-19T00:33:32;9.23;;;2.55;;
67508;SDS011;54354;44.724;11.284;2022-08-19T00:35:59;7.95;;;2.15;;
67508;SDS011;54354;44.724;11.284;2022-08-19T00:38:25;8.23;;;2.25;;
67508;SDS011;54354;44.724;11.284;2022-08-19T00:40:50;7.32;;;2.35;;
67508;SDS011;54354;44.724;11.284;2022-08-19T00:43:19;8.65;;;1.98;;
67508;SDS011;54354;44.724;11.284;2022-08-19T00:48:12;9.10;;;2.10;;
67508;SDS011;54354;44.724;11.284;2022-08-19T00:50:40;4.93;;;2.20;;
67508;SDS011;54354;44.724;11.284;2022-08-19T00:53:08;9.48;;;2.30;;
67508;SDS011;54354;44.724;11.284;2022-08-19T00:55:40;4.75;;;1.83;;
67508;SDS011;54354;44.724;11.284;2022-08-19T00:58:10;6.05;;;1.90;;
67508;SDS011;54354;44.724;11.284;2022-08-19T01:00:38;6.18;;;2.10;;
67508;SDS011;54354;44.724;11.284;2022-08-19T01:03:05;4.80;;;1.98;;
67508;SDS011;54354;44.724;11.284;2022-08-19T01:05:34;6.65;;;1.90;;
67508;SDS011;54354;44.724;11.284;2022-08-19T01:08:02;7.25;;;2.00;;
67508;SDS011;54354;44.724;11.284;2022-08-19T01:10:36;7.47;;;2.08;;
67508;SDS011;54354;44.724;11.284;2022-08-19T01:13:05;7.03;;;1.95;;
67508;SDS011;54354;44.724;11.284;2022-08-19T01:15:32;8.10;;;2.05;;
67508;SDS011;54354;44.724;11.284;2022-08-19T01:18:02;7.20;;;2.15;;
67508;SDS011;54354;44.724;11.284;2022-08-19T01:20:31;7.50;;;1.95;;
67508;SDS011;54354;44.724;11.284;2022-08-19T01:22:58;9.88;;;2.25;;
67508;SDS011;54354;44.724;11.284;2022-08-19T01:25:39;8.50;;;1.92;;
67508;SDS011;54354;44.724;11.284;2022-08-19T01:28:13;7.43;;;2.13;;
67508;SDS011;54354;44.724;11.284;2022-08-19T01:30:40;10.35;;;2.10;;
67508;SDS011;54354;44.724;11.284;2022-08-19T01:33:06;10.05;;;2.28;;
67508;SDS011;54354;44.724;11.284;2022-08-19T01:35:31;6.82;;;2.00;;
67508;SDS011;54354;44.724;11.284;2022-08-19T01:37:59;4.55;;;1.73;;
67508;SDS011;54354;44.724;11.284;2022-08-19T01:40:31;7.38;;;2.10;;
67508;SDS011;54354;44.724;11.284;2022-08-19T01:42:58;6.30;;;1.80;;
67508;SDS011;54354;44.724;11.284;2022-08-19T01:45:25;8.20;;;1.73;;
67508;SDS011;54354;44.724;11.284;2022-08-19T01:47:53;6.55;;;1.88;;
67508;SDS011;54354;44.724;11.284;2022-08-19T01:50:19;6.57;;;1.65;;
67508;SDS011;54354;44.724;11.284;2022-08-19T01:52:45;5.45;;;1.60;;
67508;SDS011;54354;44.724;11.284;2022-08-19T01:55:13;6.32;;;1.95;;
67508;SDS011;54354;44.724;11.284;2022-08-19T01:57:42;7.20;;;1.75;;
67508;SDS011;54354;44.724;11.284;2022-08-19T02:00:13;7.55;;;1.70;;
67508;SDS011;54354;44.724;11.284;2022-08-19T02:02:41;9.38;;;1.77;;
67508;SDS011;54354;44.724;11.284;2022-08-19T02:05:07;6.32;;;1.50;;
67508;SDS011;54354;44.724;11.284;2022-08-19T02:07:34;5.00;;;1.55;;
67508;SDS011;54354;44.724;11.284;2022-08-19T02:10:03;6.68;;;1.50;;
67508;SDS011;54354;44.724;11.284;2022-08-19T02:12:33;6.30;;;1.55;;
67508;SDS011;54354;44.724;11.284;2022-08-19T02:14:59;7.30;;;1.75;;
67508;SDS011;54354;44.724;11.284;2022-08-19T02:17:27;6.75;;;1.75;;
67508;SDS011;54354;44.724;11.284;2022-08-19T02:19:54;4.10;;;1.30;;
67508;SDS011;54354;44.724;11.284;2022-08-19T02:22:23;6.75;;;1.80;;
67508;SDS011;54354;44.724;11.284;2022-08-19T02:24:50;4.80;;;1.67;;
67508;SDS011;54354;44.724;11.284;2022-08-19T02:27:20;8.18;;;1.60;;
67508;SDS011;54354;44.724;11.284;2022-08-19T02:29:47;6.68;;;1.60;;
67508;SDS011;54354;44.724;11.284;2022-08-19T02:32:14;5.40;;;1.52;;
67508;SDS011;54354;44.724;11.284;2022-08-19T02:34:40;5.82;;;1.60;;
67508;SDS011;54354;44.724;11.284;2022-08-19T02:37:06;7.25;;;1.70;;
67508;SDS011;54354;44.724;11.284;2022-08-19T02:39:52;4.93;;;1.60;;
67508;SDS011;54354;44.724;11.284;2022-08-19T02:42:17;5.30;;;1.90;;
67508;SDS011;54354;44.724;11.284;2022-08-19T02:44:43;6.82;;;1.67;;
67508;SDS011;54354;44.724;11.284;2022-08-19T02:47:09;6.25;;;1.70;;
67508;SDS011;54354;44.724;11.284;2022-08-19T02:49:35;5.15;;;1.63;;
67508;SDS011;54354;44.724;11.284;2022-08-19T02:52:00;4.53;;;1.60;;
67508;SDS011;54354;44.724;11.284;2022-08-19T02:54:26;5.07;;;1.70;;
67508;SDS011;54354;44.724;11.284;2022-08-19T02:56:53;6.55;;;1.70;;
67508;SDS011;54354;44.724;11.284;2022-08-19T02:59:18;3.47;;;1.70;;
67508;SDS011;54354;44.724;11.284;2022-08-19T03:01:43;4.65;;;1.60;;
67508;SDS011;54354;44.724;11.284;2022-08-19T03:04:11;3.72;;;1.55;;
67508;SDS011;54354;44.724;11.284;2022-08-19T03:06:39;6.75;;;1.70;;
67508;SDS011;54354;44.724;11.284;2022-08-19T03:09:05;6.57;;;1.70;;
67508;SDS011;54354;44.724;11.284;2022-08-19T03:11:32;6.32;;;1.92;;
67508;SDS011;54354;44.724;11.284;2022-08-19T03:13:58;6.93;;;1.95;;
67508;SDS011;54354;44.724;11.284;2022-08-19T03:16:25;8.35;;;2.10;;
67508;SDS011;54354;44.724;11.284;2022-08-19T03:18:53;5.32;;;1.80;;
67508;SDS011;54354;44.724;11.284;2022-08-19T03:21:23;4.07;;;1.70;;
67508;SDS011;54354;44.724;11.284;2022-08-19T03:23:50;9.18;;;1.98;;
67508;SDS011;54354;44.724;11.284;2022-08-19T03:26:19;7.43;;;1.92;;
67508;SDS011;54354;44.724;11.284;2022-08-19T03:28:45;7.22;;;1.92;;
67508;SDS011;54354;44.724;11.284;2022-08-19T03:31:15;6.45;;;1.70;;
67508;SDS011;54354;44.724;11.284;2022-08-19T03:33:42;3.40;;;1.70;;
67508;SDS011;54354;44.724;11.284;2022-08-19T03:36:10;6.75;;;1.90;;
67508;SDS011;54354;44.724;11.284;2022-08-19T03:38:41;5.85;;;2.00;;
67508;SDS011;54354;44.724;11.284;2022-08-19T03:41:10;3.85;;;1.75;;
67508;SDS011;54354;44.724;11.284;2022-08-19T03:46:09;7.82;;;2.17;;
67508;SDS011;54354;44.724;11.284;2022-08-19T03:48:37;5.43;;;2.03;;
67508;SDS011;54354;44.724;11.284;2022-08-19T03:51:04;5.03;;;1.88;;
67508;SDS011;54354;44.724;11.284;2022-08-19T03:53:31;6.25;;;2.10;;
67508;SDS011;54354;44.724;11.284;2022-08-19T03:55:58;7.03;;;2.00;;
67508;SDS011;54354;44.724;11.284;2022-08-19T03:58:29;8.57;;;2.22;;
67508;SDS011;54354;44.724;11.284;2022-08-19T04:00:55;7.07;;;2.10;;
67508;SDS011;54354;44.724;11.284;2022-08-19T04:03:22;4.63;;;2.15;;
67508;SDS011;54354;44.724;11.284;2022-08-19T04:05:49;5.32;;;2.05;;
67508;SDS011;54354;44.724;11.284;2022-08-19T04:08:15;4.20;;;1.70;;
67508;SDS011;54354;44.724;11.284;2022-08-19T04:10:49;7.05;;;2.28;;
67508;SDS011;54354;44.724;11.284;2022-08-19T04:13:17;6.32;;;1.90;;
67508;SDS011;54354;44.724;11.284;2022-08-19T04:15:44;8.18;;;2.17;;
67508;SDS011;54354;44.724;11.284;2022-08-19T04:18:11;6.00;;;2.45;;
67508;SDS011;54354;44.724;11.284;2022-08-19T04:20:40;5.45;;;2.20;;
67508;SDS011;54354;44.724;11.284;2022-08-19T04:23:11;7.18;;;2.38;;
67508;SDS011;54354;44.724;11.284;2022-08-19T04:25:41;8.18;;;2.33;;
67508;SDS011;54354;44.724;11.284;2022-08-19T04:28:09;8.35;;;2.30;;
67508;SDS011;54354;44.724;11.284;2022-08-19T04:30:38;4.93;;;2.00;;
67508;SDS011;54354;44.724;11.284;2022-08-19T04:33:05;5.53;;;2.20;;
67508;SDS011;54354;44.724;11.284;2022-08-19T04:35:34;10.55;;;2.40;;
67508;SDS011;54354;44.724;11.284;2022-08-19T04:38:04;10.35;;;1.80;;
67508;SDS011;54354;44.724;11.284;2022-08-19T04:40:30;7.85;;;2.10;;
67508;SDS011;54354;44.724;11.284;2022-08-19T04:43:14;4.75;;;1.88;;
67508;SDS011;54354;44.724;11.284;2022-08-19T04:45:41;7.85;;;2.25;;
67508;SDS011;54354;44.724;11.284;2022-08-19T04:48:08;9.00;;;1.88;;
67508;SDS011;54354;44.724;11.284;2022-08-19T04:50:35;7.47;;;2.15;;
67508;SDS011;54354;44.724;11.284;2022-08-19T04:53:01;12.02;;;2.33;;
67508;SDS011;54354;44.724;11.284;2022-08-19T04:55:26;7.18;;;2.40;;
67508;SDS011;54354;44.724;11.284;2022-08-19T04:57:52;9.73;;;3.05;;
67508;SDS011;54354;44.724;11.284;2022-08-19T05:00:19;8.95;;;2.55;;
67508;SDS011;54354;44.724;11.284;2022-08-19T05:02:44;6.82;;;3.03;;
67508;SDS011;54354;44.724;11.284;2022-08-19T05:05:10;7.07;;;2.92;;
67508;SDS011;54354;44.724;11.284;2022-08-19T05:07:36;16.77;;;4.82;;
67508;SDS011;54354;44.724;11.284;2022-08-19T05:10:02;11.50;;;3.92;;
67508;SDS011;54354;44.724;11.284;2022-08-19T05:12:32;9.45;;;3.80;;
67508;SDS011;54354;44.724;11.284;2022-08-19T05:14:58;47.60;;;5.10;;
67508;SDS011;54354;44.724;11.284;2022-08-19T05:17:25;13.55;;;4.38;;
67508;SDS011;54354;44.724;11.284;2022-08-19T05:19:51;18.83;;;5.38;;
67508;SDS011;54354;44.724;11.284;2022-08-19T05:22:36;22.27;;;6.97;;
67508;SDS011;54354;44.724;11.284;2022-08-19T05:25:07;26.17;;;5.93;;
67508;SDS011;54354;44.724;11.284;2022-08-19T05:27:34;20.33;;;5.07;;
67508;SDS011;54354;44.724;11.284;2022-08-19T05:30:00;15.38;;;5.00;;
67508;SDS011;54354;44.724;11.284;2022-08-19T05:32:26;17.25;;;5.07;;
67508;SDS011;54354;44.724;11.284;2022-08-19T05:34:52;14.52;;;5.50;;
67508;SDS011;54354;44.724;11.284;2022-08-19T05:37:18;9.82;;;5.10;;
67508;SDS011;54354;44.724;11.284;2022-08-19T05:39:44;13.60;;;6.35;;
67508;SDS011;54354;44.724;11.284;2022-08-19T05:42:10;11.98;;;4.78;;
67508;SDS011;54354;44.724;11.284;2022-08-19T05:44:37;16.13;;;4.00;;
67508;SDS011;54354;44.724;11.284;2022-08-19T05:47:08;8.57;;;2.60;;
67508;SDS011;54354;44.724;11.284;2022-08-19T05:49:34;13.73;;;2.28;;
67508;SDS011;54354;44.724;11.284;2022-08-19T05:52:02;14.48;;;2.70;;
67508;SDS011;54354;44.724;11.284;2022-08-19T05:54:32;12.05;;;2.72;;
67508;SDS011;54354;44.724;11.284;2022-08-19T05:56:58;17.77;;;2.72;;
67508;SDS011;54354;44.724;11.284;2022-08-19T05:59:25;36.80;;;2.70;;
67508;SDS011;54354;44.724;11.284;2022-08-19T06:01:53;18.00;;;2.40;;
67508;SDS011;54354;44.724;11.284;2022-08-19T06:04:22;6.43;;;2.20;;
67508;SDS011;54354;44.724;11.284;2022-08-19T06:06:49;6.25;;;2.60;;
67508;SDS011;54354;44.724;11.284;2022-08-19T06:09:16;14.93;;;3.30;;
67508;SDS011;54354;44.724;11.284;2022-08-19T06:11:45;14.60;;;3.30;;
67508;SDS011;54354;44.724;11.284;2022-08-19T06:14:19;8.05;;;2.45;;
67508;SDS011;54354;44.724;11.284;2022-08-19T06:16:47;8.82;;;2.55;;
67508;SDS011;54354;44.724;11.284;2022-08-19T06:19:14;10.85;;;2.30;;
67508;SDS011;54354;44.724;11.284;2022-08-19T06:21:42;3.53;;;1.10;;
67508;SDS011;54354;44.724;11.284;2022-08-19T06:24:10;4.00;;;1.10;;
67508;SDS011;54354;44.724;11.284;2022-08-19T06:26:39;3.53;;;0.70;;
67508;SDS011;54354;44.724;11.284;2022-08-19T06:29:06;3.97;;;0.90;;
67508;SDS011;54354;44.724;11.284;2022-08-19T06:31:33;2.97;;;0.80;;
67508;SDS011;54354;44.724;11.284;2022-08-19T06:34:03;2.05;;;0.70;;
67508;SDS011;54354;44.724;11.284;2022-08-19T06:36:31;3.40;;;0.77;;
67508;SDS011;54354;44.724;11.284;2022-08-19T06:39:04;2.65;;;0.60;;
67508;SDS011;54354;44.724;11.284;2022-08-19T06:41:33;3.15;;;0.70;;
67508;SDS011;54354;44.724;11.284;2022-08-19T06:44:01;6.95;;;0.80;;
67508;SDS011;54354;44.724;11.284;2022-08-19T06:46:27;4.60;;;0.70;;
67508;SDS011;54354;44.724;11.284;2022-08-19T06:48:52;4.53;;;0.90;;
67508;SDS011;54354;44.724;11.284;2022-08-19T06:51:19;7.25;;;0.93;;
67508;SDS011;54354;44.724;11.284;2022-08-19T06:53:46;5.80;;;1.17;;
67508;SDS011;54354;44.724;11.284;2022-08-19T06:56:13;5.80;;;1.40;;
67508;SDS011;54354;44.724;11.284;2022-08-19T06:58:40;5.72;;;1.88;;
67508;SDS011;54354;44.724;11.284;2022-08-19T07:01:06;6.72;;;2.08;;
67508;SDS011;54354;44.724;11.284;2022-08-19T07:03:32;4.38;;;2.25;;
67508;SDS011;54354;44.724;11.284;2022-08-19T07:06:06;6.50;;;2.70;;
67508;SDS011;54354;44.724;11.284;2022-08-19T07:08:34;8.15;;;3.10;;
67508;SDS011;54354;44.724;11.284;2022-08-19T07:11:08;4.70;;;2.60;;
67508;SDS011;54354;44.724;11.284;2022-08-19T07:13:35;4.50;;;2.20;;
67508;SDS011;54354;44.724;11.284;2022-08-19T07:16:06;3.20;;;2.13;;
67508;SDS011;54354;44.724;11.284;2022-08-19T07:18:32;4.47;;;2.00;;
67508;SDS011;54354;44.724;11.284;2022-08-19T07:21:12;6.30;;;1.90;;
67508;SDS011;54354;44.724;11.284;2022-08-19T07:23:40;5.80;;;1.83;;
67508;SDS011;54354;44.724;11.284;2022-08-19T07:26:07;3.28;;;1.67;;
67508;SDS011;54354;44.724;11.284;2022-08-19T07:28:42;4.30;;;1.90;;
67508;SDS011;54354;44.724;11.284;2022-08-19T07:31:14;3.67;;;1.80;;
67508;SDS011;54354;44.724;11.284;2022-08-19T07:33:43;4.00;;;1.70;;
67508;SDS011;54354;44.724;11.284;2022-08-19T07:36:10;5.18;;;1.52;;
67508;SDS011;54354;44.724;11.284;2022-08-19T07:38:38;74.40;;;3.80;;
67508;SDS011;54354;44.724;11.284;2022-08-19T07:41:06;2.65;;;1.35;;
67508;SDS011;54354;44.724;11.284;2022-08-19T07:43:34;4.65;;;1.40;;
67508;SDS011;54354;44.724;11.284;2022-08-19T07:45:59;3.75;;;1.60;;
67508;SDS011;54354;44.724;11.284;2022-08-19T07:48:26;4.47;;;1.30;;
67508;SDS011;54354;44.724;11.284;2022-08-19T07:50:53;2.65;;;1.30;;
67508;SDS011;54354;44.724;11.284;2022-08-19T07:53:20;3.85;;;1.30;;
67508;SDS011;54354;44.724;11.284;2022-08-19T07:55:46;4.72;;;1.10;;
67508;SDS011;54354;44.724;11.284;2022-08-19T07:58:13;2.28;;;1.00;;
67508;SDS011;54354;44.724;11.284;2022-08-19T08:00:41;3.08;;;1.30;;
67508;SDS011;54354;44.724;11.284;2022-08-19T08:03:07;2.25;;;1.10;;
67508;SDS011;54354;44.724;11.284;2022-08-19T08:05:33;3.53;;;1.30;;
67508;SDS011;54354;44.724;11.284;2022-08-19T08:08:18;3.03;;;1.30;;
67508;SDS011;54354;44.724;11.284;2022-08-19T08:11:02;4.35;;;1.30;;
67508;SDS011;54354;44.724;11.284;2022-08-19T08:13:28;2.47;;;1.13;;
67508;SDS011;54354;44.724;11.284;2022-08-19T08:15:54;3.08;;;1.27;;
67508;SDS011;54354;44.724;11.284;2022-08-19T08:18:20;3.28;;;1.20;;
67508;SDS011;54354;44.724;11.284;2022-08-19T08:20:45;4.43;;;1.40;;
67508;SDS011;54354;44.724;11.284;2022-08-19T08:23:11;4.13;;;1.35;;
67508;SDS011;54354;44.724;11.284;2022-08-19T08:25:53;3.22;;;1.50;;
67508;SDS011;54354;44.724;11.284;2022-08-19T08:28:21;3.55;;;1.33;;
67508;SDS011;54354;44.724;11.284;2022-08-19T08:30:48;6.72;;;1.52;;
67508;SDS011;54354;44.724;11.284;2022-08-19T08:33:21;5.35;;;1.08;;
67508;SDS011;54354;44.724;11.284;2022-08-19T08:35:48;2.90;;;1.20;;
67508;SDS011;54354;44.724;11.284;2022-08-19T08:38:14;3.80;;;1.45;;
67508;SDS011;54354;44.724;11.284;2022-08-19T08:40:45;3.53;;;1.50;;
67508;SDS011;54354;44.724;11.284;2022-08-19T08:43:24;4.97;;;1.55;;
67508;SDS011;54354;44.724;11.284;2022-08-19T08:48:45;5.75;;;1.50;;
67508;SDS011;54354;44.724;11.284;2022-08-19T08:51:18;3.10;;;1.42;;
67508;SDS011;54354;44.724;11.284;2022-08-19T08:53:51;4.38;;;1.40;;
67508;SDS011;54354;44.724;11.284;2022-08-19T08:56:17;3.22;;;1.38;;
67508;SDS011;54354;44.724;11.284;2022-08-19T09:01:35;3.95;;;1.60;;
67508;SDS011;54354;44.724;11.284;2022-08-19T09:04:02;4.95;;;1.23;;
67508;SDS011;54354;44.724;11.284;2022-08-19T09:09:43;2.97;;;1.48;;
67508;SDS011;54354;44.724;11.284;2022-08-19T09:12:25;4.47;;;1.75;;
67508;SDS011;54354;44.724;11.284;2022-08-19T09:15:04;2.20;;;1.40;;
67508;SDS011;54354;44.724;11.284;2022-08-19T09:17:33;3.50;;;1.40;;
67508;SDS011;54354;44.724;11.284;2022-08-19T09:20:18;4.60;;;1.33;;
67508;SDS011;54354;44.724;11.284;2022-08-19T09:22:45;2.72;;;1.20;;
67508;SDS011;54354;44.724;11.284;2022-08-19T09:25:11;1.90;;;1.17;;
67508;SDS011;54354;44.724;11.284;2022-08-19T09:27:39;2.35;;;1.00;;
67508;SDS011;54354;44.724;11.284;2022-08-19T09:30:07;2.22;;;1.10;;
67508;SDS011;54354;44.724;11.284;2022-08-19T09:32:34;2.67;;;0.73;;
67508;SDS011;54354;44.724;11.284;2022-08-19T09:35:00;1.33;;;0.65;;
67508;SDS011;54354;44.724;11.284;2022-08-19T09:37:26;1.63;;;0.80;;
67508;SDS011;54354;44.724;11.284;2022-08-19T09:39:52;2.92;;;0.65;;
67508;SDS011;54354;44.724;11.284;2022-08-19T09:42:24;2.55;;;0.90;;
67508;SDS011;54354;44.724;11.284;2022-08-19T09:44:49;1.30;;;0.60;;
67508;SDS011;54354;44.724;11.284;2022-08-19T09:47:14;2.28;;;0.73;;
67508;SDS011;54354;44.724;11.284;2022-08-19T09:49:40;2.08;;;0.60;;
67508;SDS011;54354;44.724;11.284;2022-08-19T09:52:08;1.75;;;0.73;;
67508;SDS011;54354;44.724;11.284;2022-08-19T09:54:36;1.50;;;0.70;;
67508;SDS011;54354;44.724;11.284;2022-08-19T09:57:02;2.72;;;0.70;;
67508;SDS011;54354;44.724;11.284;2022-08-19T09:59:28;1.98;;;0.80;;
67508;SDS011;54354;44.724;11.284;2022-08-19T10:01:54;1.42;;;0.70;;
67508;SDS011;54354;44.724;11.284;2022-08-19T10:04:20;1.52;;;0.70;;
67508;SDS011;54354;44.724;11.284;2022-08-19T10:06:47;1.63;;;0.60;;
67508;SDS011;54354;44.724;11.284;2022-08-19T10:09:15;1.77;;;0.75;;
67508;SDS011;54354;44.724;11.284;2022-08-19T10:11:43;1.27;;;0.60;;
67508;SDS011;54354;44.724;11.284;2022-08-19T10:14:13;2.88;;;0.90;;
67508;SDS011;54354;44.724;11.284;2022-08-19T10:16:40;1.27;;;0.70;;
67508;SDS011;54354;44.724;11.284;2022-08-19T10:19:07;1.10;;;0.60;;
67508;SDS011;54354;44.724;11.284;2022-08-19T10:21:34;1.98;;;0.68;;
67508;SDS011;54354;44.724;11.284;2022-08-19T10:24:00;1.73;;;0.60;;
67508;SDS011;54354;44.724;11.284;2022-08-19T10:26:30;1.33;;;0.65;;
67508;SDS011;54354;44.724;11.284;2022-08-19T10:29:01;1.65;;;0.60;;
67508;SDS011;54354;44.724;11.284;2022-08-19T10:31:27;1.20;;;0.57;;
67508;SDS011;54354;44.724;11.284;2022-08-19T10:33:55;1.38;;;0.80;;
67508;SDS011;54354;44.724;11.284;2022-08-19T10:36:27;1.55;;;0.57;;
67508;SDS011;54354;44.724;11.284;2022-08-19T10:39:00;2.22;;;0.80;;
67508;SDS011;54354;44.724;11.284;2022-08-19T10:41:32;1.52;;;0.50;;
67508;SDS011;54354;44.724;11.284;2022-08-19T10:44:01;3.05;;;0.60;;
67508;SDS011;54354;44.724;11.284;2022-08-19T10:46:30;0.80;;;0.60;;
67508;SDS011;54354;44.724;11.284;2022-08-19T10:48:58;2.90;;;0.68;;
67508;SDS011;54354;44.724;11.284;2022-08-19T10:51:25;1.70;;;0.50;;
67508;SDS011;54354;44.724;11.284;2022-08-19T10:54:09;1.48;;;0.60;;
67508;SDS011;54354;44.724;11.284;2022-08-19T10:56:35;2.45;;;0.73;;
67508;SDS011;54354;44.724;11.284;2022-08-19T10:59:16;1.85;;;0.50;;
67508;SDS011;54354;44.724;11.284;2022-08-19T11:01:54;1.20;;;0.40;;
67508;SDS011;54354;44.724;11.284;2022-08-19T11:04:24;1.27;;;0.45;;
67508;SDS011;54354;44.724;11.284;2022-08-19T11:06:50;2.10;;;0.45;;
67508;SDS011;54354;44.724;11.284;2022-08-19T11:09:22;0.60;;;0.50;;
67508;SDS011;54354;44.724;11.284;2022-08-19T11:11:50;1.63;;;0.50;;
67508;SDS011;54354;44.724;11.284;2022-08-19T11:14:17;0.85;;;0.43;;
67508;SDS011;54354;44.724;11.284;2022-08-19T11:16:45;1.45;;;0.45;;
67508;SDS011;54354;44.724;11.284;2022-08-19T11:19:11;1.35;;;0.50;;
67508;SDS011;54354;44.724;11.284;2022-08-19T11:21:39;1.65;;;0.50;;
67508;SDS011;54354;44.724;11.284;2022-08-19T11:24:07;1.20;;;0.50;;
67508;SDS011;54354;44.724;11.284;2022-08-19T11:26:35;1.27;;;0.50;;
67508;SDS011;54354;44.724;11.284;2022-08-19T11:29:03;1.20;;;0.40;;
67508;SDS011;54354;44.724;11.284;2022-08-19T11:31:32;1.23;;;0.60;;
67508;SDS011;54354;44.724;11.284;2022-08-19T11:34:01;2.90;;;0.60;;
67508;SDS011;54354;44.724;11.284;2022-08-19T11:36:29;1.27;;;0.50;;
67508;SDS011;54354;44.724;11.284;2022-08-19T11:38:56;0.75;;;0.50;;
67508;SDS011;54354;44.724;11.284;2022-08-19T11:41:22;8.77;;;0.60;;
67508;SDS011;54354;44.724;11.284;2022-08-19T11:43:49;2.78;;;0.50;;
67508;SDS011;54354;44.724;11.284;2022-08-19T11:46:18;2.00;;;0.60;;
67508;SDS011;54354;44.724;11.284;2022-08-19T11:48:44;2.45;;;0.63;;
67508;SDS011;54354;44.724;11.284;2022-08-19T11:51:13;1.90;;;0.75;;
67508;SDS011;54354;44.724;11.284;2022-08-19T11:53:41;1.77;;;0.52;;
67508;SDS011;54354;44.724;11.284;2022-08-19T11:56:07;1.77;;;0.68;;
67508;SDS011;54354;44.724;11.284;2022-08-19T11:58:34;2.05;;;0.65;;
67508;SDS011;54354;44.724;11.284;2022-08-19T12:01:00;1.77;;;0.60;;
67508;SDS011;54354;44.724;11.284;2022-08-19T12:03:26;1.45;;;0.60;;
67508;SDS011;54354;44.724;11.284;2022-08-19T12:05:52;1.83;;;0.50;;
67508;SDS011;54354;44.724;11.284;2022-08-19T12:08:18;1.45;;;0.60;;
67508;SDS011;54354;44.724;11.284;2022-08-19T12:10:44;1.83;;;0.60;;
67508;SDS011;54354;44.724;11.284;2022-08-19T12:13:10;1.27;;;0.50;;
67508;SDS011;54354;44.724;11.284;2022-08-19T12:15:39;1.80;;;0.70;;
67508;SDS011;54354;44.724;11.284;2022-08-19T12:18:08;1.00;;;0.60;;
67508;SDS011;54354;44.724;11.284;2022-08-19T12:20:37;1.27;;;0.60;;
67508;SDS011;54354;44.724;11.284;2022-08-19T12:23:05;1.98;;;0.57;;
67508;SDS011;54354;44.724;11.284;2022-08-19T12:25:31;1.15;;;0.60;;
67508;SDS011;54354;44.724;11.284;2022-08-19T12:27:58;2.22;;;0.43;;
67508;SDS011;54354;44.724;11.284;2022-08-19T12:30:24;2.42;;;0.43;;
67508;SDS011;54354;44.724;11.284;2022-08-19T12:32:50;2.88;;;0.50;;
67508;SDS011;54354;44.724;11.284;2022-08-19T12:35:16;1.67;;;0.60;;
67508;SDS011;54354;44.724;11.284;2022-08-19T12:37:45;1.88;;;0.60;;
67508;SDS011;54354;44.724;11.284;2022-08-19T12:40:13;3.17;;;0.50;;
67508;SDS011;54354;44.724;11.284;2022-08-19T12:42:40;3.10;;;0.50;;
67508;SDS011;54354;44.724;11.284;2022-08-19T12:45:09;1.33;;;0.50;;
67508;SDS011;54354;44.724;11.284;2022-08-19T12:47:36;2.05;;;0.50;;
67508;SDS011;54354;44.724;11.284;2022-08-19T12:50:02;1.00;;;0.50;;
67508;SDS011;54354;44.724;11.284;2022-08-19T12:52:29;2.63;;;0.57;;
67508;SDS011;54354;44.724;11.284;2022-08-19T12:54:55;2.35;;;0.60;;
67508;SDS011;54354;44.724;11.284;2022-08-19T12:57:22;1.80;;;0.55;;
67508;SDS011;54354;44.724;11.284;2022-08-19T12:59:51;3.00;;;0.50;;
67508;SDS011;54354;44.724;11.284;2022-08-19T13:02:18;1.42;;;0.60;;
67508;SDS011;54354;44.724;11.284;2022-08-19T13:04:44;1.63;;;0.68;;
67508;SDS011;54354;44.724;11.284;2022-08-19T13:07:10;4.10;;;0.60;;
67508;SDS011;54354;44.724;11.284;2022-08-19T13:09:36;2.58;;;0.80;;
67508;SDS011;54354;44.724;11.284;2022-08-19T13:12:02;1.55;;;0.40;;
67508;SDS011;54354;44.724;11.284;2022-08-19T13:14:32;2.65;;;0.63;;
67508;SDS011;54354;44.724;11.284;2022-08-19T13:17:01;1.60;;;0.40;;
67508;SDS011;54354;44.724;11.284;2022-08-19T13:19:26;1.65;;;0.60;;
67508;SDS011;54354;44.724;11.284;2022-08-19T13:21:52;1.20;;;0.52;;
67508;SDS011;54354;44.724;11.284;2022-08-19T13:24:18;1.50;;;0.52;;
67508;SDS011;54354;44.724;11.284;2022-08-19T13:26:44;1.85;;;0.70;;
67508;SDS011;54354;44.724;11.284;2022-08-19T13:29:09;1.92;;;0.60;;
67508;SDS011;54354;44.724;11.284;2022-08-19T13:31:54;3.65;;;0.60;;
67508;SDS011;54354;44.724;11.284;2022-08-19T13:34:38;1.23;;;0.50;;
67508;SDS011;54354;44.724;11.284;2022-08-19T13:37:04;2.90;;;0.80;;
67508;SDS011;54354;44.724;11.284;2022-08-19T13:39:33;1.52;;;0.60;;
67508;SDS011;54354;44.724;11.284;2022-08-19T13:42:00;2.72;;;0.57;;
67508;SDS011;54354;44.724;11.284;2022-08-19T13:44:27;3.40;;;0.55;;
67508;SDS011;54354;44.724;11.284;2022-08-19T13:46:55;1.42;;;0.60;;
67508;SDS011;54354;44.724;11.284;2022-08-19T13:49:27;1.70;;;0.50;;
67508;SDS011;54354;44.724;11.284;2022-08-19T13:51:56;0.75;;;0.50;;
67508;SDS011;54354;44.724;11.284;2022-08-19T13:54:21;3.17;;;0.60;;
67508;SDS011;54354;44.724;11.284;2022-08-19T13:56:47;1.90;;;0.60;;
67508;SDS011;54354;44.724;11.284;2022-08-19T13:59:12;1.30;;;0.60;;
67508;SDS011;54354;44.724;11.284;2022-08-19T14:01:38;3.53;;;0.60;;
67508;SDS011;54354;44.724;11.284;2022-08-19T14:04:05;3.15;;;0.70;;
67508;SDS011;54354;44.724;11.284;2022-08-19T14:06:31;1.42;;;0.50;;
67508;SDS011;54354;44.724;11.284;2022-08-19T14:08:57;2.03;;;0.68;;
67508;SDS011;54354;44.724;11.284;2022-08-19T14:11:23;2.05;;;0.50;;
67508;SDS011;54354;44.724;11.284;2022-08-19T14:13:49;2.05;;;0.55;;
67508;SDS011;54354;44.724;11.284;2022-08-19T14:16:15;1.63;;;0.63;;
67508;SDS011;54354;44.724;11.284;2022-08-19T14:18:41;1.38;;;0.60;;
67508;SDS011;54354;44.724;11.284;2022-08-19T14:21:08;2.15;;;0.57;;
67508;SDS011;54354;44.724;11.284;2022-08-19T14:23:40;2.72;;;0.68;;
67508;SDS011;54354;44.724;11.284;2022-08-19T14:26:07;1.23;;;0.40;;
67508;SDS011;54354;44.724;11.284;2022-08-19T14:28:34;2.40;;;0.60;;
67508;SDS011;54354;44.724;11.284;2022-08-19T14:31:00;1.48;;;0.47;;
67508;SDS011;54354;44.724;11.284;2022-08-19T14:33:26;1.65;;;0.50;;
67508;SDS011;54354;44.724;11.284;2022-08-19T14:35:51;2.15;;;0.50;;
67508;SDS011;54354;44.724;11.284;2022-08-19T14:38:17;2.97;;;0.50;;
67508;SDS011;54354;44.724;11.284;2022-08-19T14:40:43;1.70;;;0.47;;
67508;SDS011;54354;44.724;11.284;2022-08-19T14:43:10;0.98;;;0.50;;
67508;SDS011;54354;44.724;11.284;2022-08-19T14:45:37;1.48;;;0.60;;
67508;SDS011;54354;44.724;11.284;2022-08-19T14:48:04;1.70;;;0.50;;
67508;SDS011;54354;44.724;11.284;2022-08-19T14:50:32;3.00;;;0.60;;
67508;SDS011;54354;44.724;11.284;2022-08-19T14:52:59;1.70;;;0.60;;